sensor_id;sensor_type;location;lat;lon;timestamp;pressure;altitude;pressure_sealevel;temperature;humidity
72414;BME280;60995;52.154;4.498;2024-02-23T00:02:06;98442.31;;;7.29;100.00
72414;BME280;60995;52.154;4.498;2024-02-23T00:04:22;98458.59;;;7.44;100.00
72414;BME280;60995;52.154;4.498;2024-02-23T00:06:38;98456.75;;;7.36;100.00
72414;BME280;60995;52.154;4.498;2024-02-23T00:08:55;98451.72;;;7.33;100.00
72414;BME280;60995;52.154;4.498;2024-02-23T00:11:11;98463.47;;;7.40;100.00
72414;BME280;60995;52.154;4.498;2024-02-23T00:13:27;98462.38;;;7.26;100.00
72414;BME280;60995;52.154;4.498;2024-02-23T00:15:43;98460.84;;;7.32;100.00
72414;BME280;60995;52.154;4.498;2024-02-23T00:18:00;98471.25;;;7.35;100.00
72414;BME280;60995;52.154;4.498;2024-02-23T00:20:19;98460.19;;;7.22;100.00
72414;BME280;60995;52.154;4.498;2024-02-23T00:22:35;98477.72;;;7.26;100.00
72414;BME280;60995;52.154;4.498;2024-02-23T00:24:51;98482.41;;;7.32;100.00
72414;BME280;60995;52.154;4.498;2024-02-23T00:27:08;98479.06;;;7.30;100.00
72414;BME280;60995;52.154;4.498;2024-02-23T00:29:24;98479.72;;;7.32;100.00
72414;BME280;60995;52.154;4.498;2024-02-23T00:31:40;98470.66;;;7.17;100.00
72414;BME280;60995;52.154;4.498;2024-02-23T00:33:56;98479.94;;;7.14;100.00
72414;BME280;60995;52.154;4.498;2024-02-23T00:36:13;98482.13;;;7.19;100.00
72414;BME280;60995;52.154;4.498;2024-02-23T00:38:30;98488.34;;;7.19;100.00
72414;BME280;60995;52.154;4.498;2024-02-23T00:40:46;98493.75;;;7.19;100.00
72414;BME280;60995;52.154;4.498;2024-02-23T00:43:02;98480.25;;;7.19;100.00
72414;BME280;60995;52.154;4.498;2024-02-23T00:45:19;98504.34;;;7.29;100.00
72414;BME280;60995;52.154;4.498;2024-02-23T00:47:35;98507.06;;;7.29;100.00
72414;BME280;60995;52.154;4.498;2024-02-23T00:49:52;98507.38;;;7.34;100.00
72414;BME280;60995;52.154;4.498;2024-02-23T00:52:08;98492.06;;;7.18;100.00
72414;BME280;60995;52.154;4.498;2024-02-23T00:54:25;98498.63;;;7.16;100.00
72414;BME280;60995;52.154;4.498;2024-02-23T00:56:41;98503.72;;;7.19;100.00
72414;BME280;60995;52.154;4.498;2024-02-23T00:58:57;98509.94;;;7.19;100.00
72414;BME280;60995;52.154;4.498;2024-02-23T01:01:13;98519.22;;;7.25;100.00
72414;BME280;60995;52.154;4.498;2024-02-23T01:03:31;98519.22;;;7.25;100.00
72414;BME280;60995;52.154;4.498;2024-02-23T01:05:47;98510.78;;;7.20;100.00
72414;BME280;60995;52.154;4.498;2024-02-23T01:08:04;98516.34;;;7.26;100.00
72414;BME280;60995;52.154;4.498;2024-02-23T01:10:20;98526.28;;;7.18;100.00
72414;BME280;60995;52.154;4.498;2024-02-23T01:12:36;98528.31;;;7.16;100.00
72414;BME280;60995;52.154;4.498;2024-02-23T01:14:53;98526.31;;;7.09;100.00
72414;BME280;60995;52.154;4.498;2024-02-23T01:17:09;98517.88;;;7.12;100.00
72414;BME280;60995;52.154;4.498;2024-02-23T01:19:25;98537.44;;;7.15;100.00
72414;BME280;60995;52.154;4.498;2024-02-23T01:21:42;98543.63;;;7.23;100.00
72414;BME280;60995;52.154;4.498;2024-02-23T01:23:58;98537.25;;;7.16;100.00
72414;BME280;60995;52.154;4.498;2024-02-23T01:26:16;98542.16;;;7.12;100.00
72414;BME280;60995;52.154;4.498;2024-02-23T01:28:32;98553.94;;;7.11;100.00
72414;BME280;60995;52.154;4.498;2024-02-23T01:30:49;98553.94;;;7.11;100.00
72414;BME280;60995;52.154;4.498;2024-02-23T01:33:05;98565.41;;;7.14;100.00
72414;BME280;60995;52.154;4.498;2024-02-23T01:35:21;98586.13;;;7.13;100.00
72414;BME280;60995;52.154;4.498;2024-02-23T01:37:37;98591.53;;;7.21;100.00
72414;BME280;60995;52.154;4.498;2024-02-23T01:39:54;98589.00;;;7.20;100.00
72414;BME280;60995;52.154;4.498;2024-02-23T01:42:10;98585.81;;;7.16;100.00
72414;BME280;60995;52.154;4.498;2024-02-23T01:44:26;98569.84;;;6.90;100.00
72414;BME280;60995;52.154;4.498;2024-02-23T01:46:43;98534.66;;;6.58;100.00
72414;BME280;60995;52.154;4.498;2024-02-23T01:49:00;98525.88;;;6.56;100.00
72414;BME280;60995;52.154;4.498;2024-02-23T01:51:17;98526.72;;;6.57;100.00
72414;BME280;60995;52.154;4.498;2024-02-23T01:53:33;98517.28;;;6.44;100.00
72414;BME280;60995;52.154;4.498;2024-02-23T01:55:50;98517.63;;;6.58;100.00
72414;BME280;60995;52.154;4.498;2024-02-23T01:58:07;98521.16;;;6.50;100.00
72414;BME280;60995;52.154;4.498;2024-02-23T02:00:24;98526.88;;;6.47;100.00
72414;BME280;60995;52.154;4.498;2024-02-23T02:02:40;98529.41;;;6.49;100.00
72414;BME280;60995;52.154;4.498;2024-02-23T02:04:56;98532.78;;;6.59;100.00
72414;BME280;60995;52.154;4.498;2024-02-23T02:07:12;98528.41;;;6.58;100.00
72414;BME280;60995;52.154;4.498;2024-02-23T02:09:29;98542.88;;;6.73;100.00
72414;BME280;60995;52.154;4.498;2024-02-23T02:11:46;98545.91;;;6.78;100.00
72414;BME280;60995;52.154;4.498;2024-02-23T02:14:03;98527.72;;;6.64;100.00
72414;BME280;60995;52.154;4.498;2024-02-23T02:16:20;98531.44;;;6.63;100.00
72414;BME280;60995;52.154;4.498;2024-02-23T02:18:36;98537.50;;;6.65;100.00
72414;BME280;60995;52.154;4.498;2024-02-23T02:20:56;98543.53;;;6.67;100.00
72414;BME280;60995;52.154;4.498;2024-02-23T02:23:13;98534.09;;;6.71;100.00
72414;BME280;60995;52.154;4.498;2024-02-23T02:25:30;98538.84;;;6.61;100.00
72414;BME280;60995;52.154;4.498;2024-02-23T02:27:47;98540.69;;;6.52;100.00
72414;BME280;60995;52.154;4.498;2024-02-23T02:30:03;98554.00;;;6.54;100.00
72414;BME280;60995;52.154;4.498;2024-02-23T02:32:20;98536.50;;;6.50;100.00
72414;BME280;60995;52.154;4.498;2024-02-23T02:34:36;98555.34;;;6.58;100.00
72414;BME280;60995;52.154;4.498;2024-02-23T02:36:52;98541.19;;;6.48;100.00
72414;BME280;60995;52.154;4.498;2024-02-23T02:39:08;98553.31;;;6.52;100.00
72414;BME280;60995;52.154;4.498;2024-02-23T02:41:28;98556.03;;;6.60;100.00
72414;BME280;60995;52.154;4.498;2024-02-23T02:43:47;98545.25;;;6.60;100.00
72414;BME280;60995;52.154;4.498;2024-02-23T02:46:04;98571.84;;;6.71;100.00
72414;BME280;60995;52.154;4.498;2024-02-23T02:48:20;98554.69;;;6.81;100.00
72414;BME280;60995;52.154;4.498;2024-02-23T02:50:36;98550.78;;;6.75;100.00
72414;BME280;60995;52.154;4.498;2024-02-23T02:52:52;98560.22;;;6.71;100.00
72414;BME280;60995;52.154;4.498;2024-02-23T02:55:09;98574.19;;;6.83;100.00
72414;BME280;60995;52.154;4.498;2024-02-23T02:57:25;98586.34;;;6.78;100.00
72414;BME280;60995;52.154;4.498;2024-02-23T02:59:42;98577.25;;;6.79;100.00
72414;BME280;60995;52.154;4.498;2024-02-23T03:02:00;98588.19;;;6.78;100.00
72414;BME280;60995;52.154;4.498;2024-02-23T03:04:21;98584.00;;;6.75;100.00
72414;BME280;60995;52.154;4.498;2024-02-23T03:06:38;98592.25;;;6.82;100.00
72414;BME280;60995;52.154;4.498;2024-02-23T03:08:54;98578.25;;;6.78;100.00
72414;BME280;60995;52.154;4.498;2024-02-23T03:11:10;98582.97;;;6.76;100.00
72414;BME280;60995;52.154;4.498;2024-02-23T03:13:26;98576.91;;;6.74;100.00
72414;BME280;60995;52.154;4.498;2024-02-23T03:15:42;98578.91;;;6.72;100.00
72414;BME280;60995;52.154;4.498;2024-02-23T03:17:59;98570.66;;;6.66;100.00
72414;BME280;60995;52.154;4.498;2024-02-23T03:20:17;98573.38;;;6.66;100.00
72414;BME280;60995;52.154;4.498;2024-02-23T03:22:33;98571.19;;;6.61;100.00
72414;BME280;60995;52.154;4.498;2024-02-23T03:24:49;98577.91;;;6.65;100.00
72414;BME280;60995;52.154;4.498;2024-02-23T03:27:06;98581.63;;;6.64;100.00
72414;BME280;60995;52.154;4.498;2024-02-23T03:29:22;98577.91;;;6.65;100.00
72414;BME280;60995;52.154;4.498;2024-02-23T03:31:45;98580.59;;;6.57;100.00
72414;BME280;60995;52.154;4.498;2024-02-23T03:34:02;98594.91;;;6.66;100.00
72414;BME280;60995;52.154;4.498;2024-02-23T03:36:19;98586.31;;;6.54;100.00
72414;BME280;60995;52.154;4.498;2024-02-23T03:38:35;98589.72;;;6.64;100.00
72414;BME280;60995;52.154;4.498;2024-02-23T03:40:51;98584.97;;;6.50;100.00
72414;BME280;60995;52.154;4.498;2024-02-23T03:43:08;98596.09;;;6.63;100.00
72414;BME280;60995;52.154;4.498;2024-02-23T03:45:24;98578.94;;;6.56;100.00
72414;BME280;60995;52.154;4.498;2024-02-23T03:47:41;98569.66;;;6.50;100.00
72414;BME280;60995;52.154;4.498;2024-02-23T03:49:58;98576.25;;;6.56;100.00
72414;BME280;60995;52.154;4.498;2024-02-23T03:52:15;98560.38;;;6.53;100.00
72414;BME280;60995;52.154;4.498;2024-02-23T03:54:31;98554.31;;;6.34;100.00
72414;BME280;60995;52.154;4.498;2024-02-23T03:56:48;98558.19;;;6.40;100.00
72414;BME280;60995;52.154;4.498;2024-02-23T03:59:04;98552.97;;;6.30;100.00
72414;BME280;60995;52.154;4.498;2024-02-23T04:01:20;98546.56;;;6.23;100.00
72414;BME280;60995;52.154;4.498;2024-02-23T04:03:37;98532.75;;;6.18;100.00
72414;BME280;60995;52.154;4.498;2024-02-23T04:05:53;98542.50;;;6.19;100.00
72414;BME280;60995;52.154;4.498;2024-02-23T04:08:09;98528.19;;;6.02;100.00
72414;BME280;60995;52.154;4.498;2024-02-23T04:10:25;98528.34;;;6.08;100.00
72414;BME280;60995;52.154;4.498;2024-02-23T04:12:42;98524.81;;;6.00;100.00
72414;BME280;60995;52.154;4.498;2024-02-23T04:14:59;98524.28;;;5.96;100.00
72414;BME280;60995;52.154;4.498;2024-02-23T04:17:15;98518.38;;;5.84;100.00
72414;BME280;60995;52.154;4.498;2024-02-23T04:19:32;98511.78;;;5.78;100.00
72414;BME280;60995;52.154;4.498;2024-02-23T04:21:49;98524.22;;;5.79;100.00
72414;BME280;60995;52.154;4.498;2024-02-23T04:24:05;98522.00;;;5.75;100.00
72414;BME280;60995;52.154;4.498;2024-02-23T04:26:22;98521.53;;;5.79;100.00
72414;BME280;60995;52.154;4.498;2024-02-23T04:28:39;98532.13;;;5.81;100.00
72414;BME280;60995;52.154;4.498;2024-02-23T04:30:59;98542.59;;;5.84;100.00
72414;BME280;60995;52.154;4.498;2024-02-23T04:33:15;98530.13;;;5.83;100.00
72414;BME280;60995;52.154;4.498;2024-02-23T04:35:32;98538.50;;;5.80;100.00
72414;BME280;60995;52.154;4.498;2024-02-23T04:37:48;98535.34;;;5.76;100.00
72414;BME280;60995;52.154;4.498;2024-02-23T04:40:05;98548.47;;;5.88;100.00
72414;BME280;60995;52.154;4.498;2024-02-23T04:42:23;98567.09;;;6.16;100.00
72414;BME280;60995;52.154;4.498;2024-02-23T04:44:41;98570.44;;;6.18;100.00
72414;BME280;60995;52.154;4.498;2024-02-23T04:46:58;98580.91;;;6.21;100.00
72414;BME280;60995;52.154;4.498;2024-02-23T04:49:14;98579.69;;;6.15;100.00
72414;BME280;60995;52.154;4.498;2024-02-23T04:51:30;98584.25;;;6.23;100.00
72414;BME280;60995;52.154;4.498;2024-02-23T04:53:49;98595.06;;;6.31;100.00
72414;BME280;60995;52.154;4.498;2024-02-23T04:56:06;98567.44;;;6.21;100.00
72414;BME280;60995;52.154;4.498;2024-02-23T04:58:22;98561.19;;;6.12;100.00
72414;BME280;60995;52.154;4.498;2024-02-23T05:00:38;98548.19;;;5.99;100.00
72414;BME280;60995;52.154;4.498;2024-02-23T05:02:54;98535.69;;;5.90;100.00
72414;BME280;60995;52.154;4.498;2024-02-23T05:05:11;98547.81;;;5.86;100.00
72414;BME280;60995;52.154;4.498;2024-02-23T05:07:27;98540.03;;;5.83;100.00
72414;BME280;60995;52.154;4.498;2024-02-23T05:09:43;98544.78;;;5.89;100.00
72414;BME280;60995;52.154;4.498;2024-02-23T05:11:59;98550.31;;;5.79;100.00
72414;BME280;60995;52.154;4.498;2024-02-23T05:14:16;98548.63;;;5.86;100.00
72414;BME280;60995;52.154;4.498;2024-02-23T05:16:32;98543.41;;;5.76;100.00
72414;BME280;60995;52.154;4.498;2024-02-23T05:18:48;98549.28;;;5.80;100.00
72414;BME280;60995;52.154;4.498;2024-02-23T05:21:04;98539.03;;;5.84;100.00
72414;BME280;60995;52.154;4.498;2024-02-23T05:23:21;98550.88;;;5.99;100.00
72414;BME280;60995;52.154;4.498;2024-02-23T05:25:37;98540.13;;;5.99;100.00
72414;BME280;60995;52.154;4.498;2024-02-23T05:27:53;98546.19;;;6.01;100.00
72414;BME280;60995;52.154;4.498;2024-02-23T05:30:10;98544.50;;;6.00;100.00
72414;BME280;60995;52.154;4.498;2024-02-23T05:32:27;98547.19;;;6.08;100.00
72414;BME280;60995;52.154;4.498;2024-02-23T05:34:43;98548.91;;;6.18;100.00
72414;BME280;60995;52.154;4.498;2024-02-23T05:36:59;98544.69;;;6.15;100.00
72414;BME280;60995;52.154;4.498;2024-02-23T05:39:15;98551.59;;;6.09;100.00
72414;BME280;60995;52.154;4.498;2024-02-23T05:41:33;98558.00;;;6.17;100.00
72414;BME280;60995;52.154;4.498;2024-02-23T05:43:50;98554.47;;;6.16;100.00
72414;BME280;60995;52.154;4.498;2024-02-23T05:46:06;98552.81;;;6.23;100.00
72414;BME280;60995;52.154;4.498;2024-02-23T05:48:22;98559.53;;;6.36;100.00
72414;BME280;60995;52.154;4.498;2024-02-23T05:50:38;98544.91;;;6.30;100.00
72414;BME280;60995;52.154;4.498;2024-02-23T05:52:55;98563.09;;;6.36;100.00
72414;BME280;60995;52.154;4.498;2024-02-23T05:55:11;98552.97;;;6.30;100.00
72414;BME280;60995;52.154;4.498;2024-02-23T05:57:27;98560.06;;;6.48;100.00
72414;BME280;60995;52.154;4.498;2024-02-23T05:59:43;98568.81;;;6.50;100.00
72414;BME280;60995;52.154;4.498;2024-02-23T06:02:01;98566.81;;;6.60;100.00
72414;BME280;60995;52.154;4.498;2024-02-23T06:04:17;98566.97;;;6.58;100.00
72414;BME280;60995;52.154;4.498;2024-02-23T06:06:33;98564.78;;;6.54;100.00
72414;BME280;60995;52.154;4.498;2024-02-23T06:08:49;98559.72;;;6.51;100.00
72414;BME280;60995;52.154;4.498;2024-02-23T06:11:09;98572.03;;;6.53;100.00
72414;BME280;60995;52.154;4.498;2024-02-23T06:13:26;98572.16;;;6.52;100.00
72414;BME280;60995;52.154;4.498;2024-02-23T06:15:42;98567.81;;;6.51;100.00
72414;BME280;60995;52.154;4.498;2024-02-23T06:17:59;98578.25;;;6.62;100.00
72414;BME280;60995;52.154;4.498;2024-02-23T06:20:15;98578.59;;;6.59;100.00
72414;BME280;60995;52.154;4.498;2024-02-23T06:22:32;98586.84;;;6.57;100.00
72414;BME280;60995;52.154;4.498;2024-02-23T06:24:48;98597.13;;;6.70;100.00
72414;BME280;60995;52.154;4.498;2024-02-23T06:27:04;98580.59;;;6.57;100.00
72414;BME280;60995;52.154;4.498;2024-02-23T06:29:21;98591.22;;;6.67;100.00
72414;BME280;60995;52.154;4.498;2024-02-23T06:31:37;98579.28;;;6.69;100.00
72414;BME280;60995;52.154;4.498;2024-02-23T06:33:54;98588.34;;;6.68;100.00
72414;BME280;60995;52.154;4.498;2024-02-23T06:36:10;98587.00;;;6.64;100.00
72414;BME280;60995;52.154;4.498;2024-02-23T06:38:29;98588.00;;;6.63;100.00
72414;BME280;60995;52.154;4.498;2024-02-23T06:40:45;98592.22;;;6.57;100.00
72414;BME280;60995;52.154;4.498;2024-02-23T06:43:03;98586.31;;;6.62;100.00
72414;BME280;60995;52.154;4.498;2024-02-23T06:45:19;98575.91;;;6.51;100.00
72414;BME280;60995;52.154;4.498;2024-02-23T06:47:41;98569.81;;;6.40;100.00
72414;BME280;60995;52.154;4.498;2024-02-23T06:49:58;98580.25;;;6.52;100.00
72414;BME280;60995;52.154;4.498;2024-02-23T06:52:14;98596.75;;;6.57;100.00
72414;BME280;60995;52.154;4.498;2024-02-23T06:54:30;98603.69;;;6.68;100.00
72414;BME280;60995;52.154;4.498;2024-02-23T06:56:47;98600.28;;;6.49;100.00
72414;BME280;60995;52.154;4.498;2024-02-23T06:59:03;98596.09;;;6.63;100.00
72414;BME280;60995;52.154;4.498;2024-02-23T07:01:22;98607.22;;;6.60;100.00
72414;BME280;60995;52.154;4.498;2024-02-23T07:03:38;98606.56;;;6.74;100.00
72414;BME280;60995;52.154;4.498;2024-02-23T07:05:57;98589.72;;;6.56;100.00
72414;BME280;60995;52.154;4.498;2024-02-23T07:08:13;98596.44;;;6.60;100.00
72414;BME280;60995;52.154;4.498;2024-02-23T07:10:29;98598.13;;;6.61;100.00
72414;BME280;60995;52.154;4.498;2024-02-23T07:12:46;98608.59;;;6.81;100.00
72414;BME280;60995;52.154;4.498;2024-02-23T07:15:02;98599.47;;;6.65;100.00
72414;BME280;60995;52.154;4.498;2024-02-23T07:17:18;98588.53;;;6.67;100.00
72414;BME280;60995;52.154;4.498;2024-02-23T07:19:35;98592.06;;;6.67;100.00
72414;BME280;60995;52.154;4.498;2024-02-23T07:21:51;98581.28;;;6.59;100.00
72414;BME280;60995;52.154;4.498;2024-02-23T07:24:07;98567.97;;;6.33;100.00
72414;BME280;60995;52.154;4.498;2024-02-23T07:26:24;98553.97;;;6.21;100.00
72414;BME280;60995;52.154;4.498;2024-02-23T07:28:40;98545.88;;;6.12;100.00
72414;BME280;60995;52.154;4.498;2024-02-23T07:30:56;98525.84;;;6.07;100.00
72414;BME280;60995;52.154;4.498;2024-02-23T07:33:12;98536.47;;;6.17;100.00
72414;BME280;60995;52.154;4.498;2024-02-23T07:35:29;98530.41;;;6.23;100.00
72414;BME280;60995;52.154;4.498;2024-02-23T07:37:45;98517.25;;;6.03;100.00
72414;BME280;60995;52.154;4.498;2024-02-23T07:40:02;98517.75;;;5.99;100.00
72414;BME280;60995;52.154;4.498;2024-02-23T07:42:20;98525.31;;;6.03;100.00
72414;BME280;60995;52.154;4.498;2024-02-23T07:44:36;98540.16;;;6.16;100.00
72414;BME280;60995;52.154;4.498;2024-02-23T07:46:53;98511.47;;;5.90;100.00
72414;BME280;60995;52.154;4.498;2024-02-23T07:49:11;98520.66;;;5.71;100.00
72414;BME280;60995;52.154;4.498;2024-02-23T07:51:27;98487.84;;;5.59;100.00
72414;BME280;60995;52.154;4.498;2024-02-23T07:53:43;98494.56;;;5.55;100.00
72414;BME280;60995;52.154;4.498;2024-02-23T07:55:59;98471.69;;;5.51;100.00
72414;BME280;60995;52.154;4.498;2024-02-23T07:58:18;98480.34;;;5.28;100.00
72414;BME280;60995;52.154;4.498;2024-02-23T08:00:35;98481.56;;;5.34;100.00
72414;BME280;60995;52.154;4.498;2024-02-23T08:02:53;98477.34;;;5.31;100.00
72414;BME280;60995;52.154;4.498;2024-02-23T08:05:12;98469.25;;;5.23;100.00
72414;BME280;60995;52.154;4.498;2024-02-23T08:07:28;98480.38;;;5.36;100.00
72414;BME280;60995;52.154;4.498;2024-02-23T08:09:46;98468.56;;;5.21;100.00
72414;BME280;60995;52.154;4.498;2024-02-23T08:12:03;98469.09;;;5.33;100.00
72414;BME280;60995;52.154;4.498;2024-02-23T08:14:20;98474.31;;;5.34;100.00
72414;BME280;60995;52.154;4.498;2024-02-23T08:16:36;98484.44;;;5.49;100.00
72414;BME280;60995;52.154;4.498;2024-02-23T08:18:52;98469.63;;;5.36;100.00
72414;BME280;60995;52.154;4.498;2024-02-23T08:21:10;98485.44;;;5.39;100.00
72414;BME280;60995;52.154;4.498;2024-02-23T08:23:26;98482.44;;;5.51;100.00
72414;BME280;60995;52.154;4.498;2024-02-23T08:25:42;98482.50;;;5.67;100.00
72414;BME280;60995;52.154;4.498;2024-02-23T08:27:59;98489.41;;;5.78;100.00
72414;BME280;60995;52.154;4.498;2024-02-23T08:30:15;98485.84;;;5.61;100.00
72414;BME280;60995;52.154;4.498;2024-02-23T08:32:31;98481.69;;;5.83;100.00
72414;BME280;60995;52.154;4.498;2024-02-23T08:34:48;98492.63;;;5.82;100.00
72414;BME280;60995;52.154;4.498;2024-02-23T08:37:04;98506.09;;;5.82;100.00
72414;BME280;60995;52.154;4.498;2024-02-23T08:39:20;98494.47;;;5.81;100.00
72414;BME280;60995;52.154;4.498;2024-02-23T08:41:39;98506.25;;;5.88;100.00
72414;BME280;60995;52.154;4.498;2024-02-23T08:43:55;98509.78;;;5.97;100.00
72414;BME280;60995;52.154;4.498;2024-02-23T08:46:11;98502.56;;;5.89;100.00
72414;BME280;60995;52.154;4.498;2024-02-23T08:48:28;98484.22;;;5.85;100.00
72414;BME280;60995;52.154;4.498;2024-02-23T08:50:45;98500.66;;;5.73;100.00
72414;BME280;60995;52.154;4.498;2024-02-23T08:53:01;98495.75;;;5.60;100.00
72414;BME280;60995;52.154;4.498;2024-02-23T08:55:18;98483.47;;;5.58;100.00
72414;BME280;60995;52.154;4.498;2024-02-23T08:57:34;98489.56;;;5.68;100.00
72414;BME280;60995;52.154;4.498;2024-02-23T08:59:50;98495.63;;;5.78;100.00
72414;BME280;60995;52.154;4.498;2024-02-23T09:02:07;98491.09;;;5.79;100.00
72414;BME280;60995;52.154;4.498;2024-02-23T09:04:23;98501.72;;;5.97;100.00
72414;BME280;60995;52.154;4.498;2024-02-23T09:06:39;98499.72;;;5.91;100.00
72414;BME280;60995;52.154;4.498;2024-02-23T09:08:55;98513.03;;;6.01;100.00
72414;BME280;60995;52.154;4.498;2024-02-23T09:11:12;98513.00;;;5.92;100.00
72414;BME280;60995;52.154;4.498;2024-02-23T09:13:29;98529.06;;;6.10;100.00
72414;BME280;60995;52.154;4.498;2024-02-23T09:15:46;98531.75;;;6.27;100.00
72414;BME280;60995;52.154;4.498;2024-02-23T09:18:02;98547.09;;;6.43;100.00
72414;BME280;60995;52.154;4.498;2024-02-23T09:20:19;98534.28;;;6.28;100.00
72414;BME280;60995;52.154;4.498;2024-02-23T09:22:35;98564.25;;;6.34;100.00
72414;BME280;60995;52.154;4.498;2024-02-23T09:24:52;98558.03;;;6.50;100.00
72414;BME280;60995;52.154;4.498;2024-02-23T09:27:09;98573.88;;;6.69;100.00
72414;BME280;60995;52.154;4.498;2024-02-23T09:29:25;98547.59;;;6.38;100.00
72414;BME280;60995;52.154;4.498;2024-02-23T09:31:41;98552.66;;;6.41;100.00
72414;BME280;60995;52.154;4.498;2024-02-23T09:33:58;98553.66;;;6.40;100.00
72414;BME280;60995;52.154;4.498;2024-02-23T09:36:15;98547.44;;;6.48;100.00
72414;BME280;60995;52.154;4.498;2024-02-23T09:38:31;98567.13;;;6.73;100.00
72414;BME280;60995;52.154;4.498;2024-02-23T09:40:48;98580.63;;;6.90;100.00
72414;BME280;60995;52.154;4.498;2024-02-23T09:43:07;98593.41;;;7.04;100.00
72414;BME280;60995;52.154;4.498;2024-02-23T09:45:24;98601.47;;;7.12;100.00
72414;BME280;60995;52.154;4.498;2024-02-23T09:47:42;98606.84;;;7.29;100.00
72414;BME280;60995;52.154;4.498;2024-02-23T09:50:03;98597.63;;;7.07;100.00
72414;BME280;60995;52.154;4.498;2024-02-23T09:52:21;98603.34;;;7.12;100.00
72414;BME280;60995;52.154;4.498;2024-02-23T09:54:38;98602.31;;;7.13;100.00
72414;BME280;60995;52.154;4.498;2024-02-23T09:56:55;98612.59;;;7.34;100.00
72414;BME280;60995;52.154;4.498;2024-02-23T09:59:12;98649.22;;;7.76;100.00
72414;BME280;60995;52.154;4.498;2024-02-23T10:01:32;98667.41;;;7.99;100.00
72414;BME280;60995;52.154;4.498;2024-02-23T10:03:49;98649.56;;;7.82;100.00
72414;BME280;60995;52.154;4.498;2024-02-23T10:06:05;98659.06;;;7.61;100.00
72414;BME280;60995;52.154;4.498;2024-02-23T10:08:22;98641.53;;;7.57;100.00
72414;BME280;60995;52.154;4.498;2024-02-23T10:10:38;98636.81;;;7.59;100.00
72414;BME280;60995;52.154;4.498;2024-02-23T10:12:54;98675.09;;;8.10;100.00
72414;BME280;60995;52.154;4.498;2024-02-23T10:15:10;98750.72;;;9.21;100.00
72414;BME280;60995;52.154;4.498;2024-02-23T10:17:27;98773.94;;;9.16;100.00
72414;BME280;60995;52.154;4.498;2024-02-23T10:19:44;98725.75;;;9.34;100.00
72414;BME280;60995;52.154;4.498;2024-02-23T10:22:01;98712.94;;;9.28;100.00
72414;BME280;60995;52.154;4.498;2024-02-23T10:24:17;98702.31;;;9.03;100.00
72414;BME280;60995;52.154;4.498;2024-02-23T10:26:34;98708.63;;;9.19;100.00
72414;BME280;60995;52.154;4.498;2024-02-23T10:28:50;98688.25;;;8.85;100.00
72414;BME280;60995;52.154;4.498;2024-02-23T10:31:06;98663.84;;;8.38;100.00
72414;BME280;60995;52.154;4.498;2024-02-23T10:33:23;98677.50;;;8.45;100.00
72414;BME280;60995;52.154;4.498;2024-02-23T10:35:40;98689.16;;;8.46;100.00
72414;BME280;60995;52.154;4.498;2024-02-23T10:38:01;98678.00;;;8.49;100.00
72414;BME280;60995;52.154;4.498;2024-02-23T10:40:19;98697.84;;;8.64;100.00
72414;BME280;60995;52.154;4.498;2024-02-23T10:42:38;98739.44;;;9.18;100.00
72414;BME280;60995;52.154;4.498;2024-02-23T10:44:56;98740.41;;;9.63;100.00
72414;BME280;60995;52.154;4.498;2024-02-23T10:47:17;98755.13;;;9.46;100.00
72414;BME280;60995;52.154;4.498;2024-02-23T10:49:36;98740.31;;;9.33;100.00
72414;BME280;60995;52.154;4.498;2024-02-23T10:51:54;98736.88;;;9.39;100.00
72414;BME280;60995;52.154;4.498;2024-02-23T10:54:11;98725.34;;;8.99;100.00
72414;BME280;60995;52.154;4.498;2024-02-23T10:56:28;98704.59;;;8.68;100.00
72414;BME280;60995;52.154;4.498;2024-02-23T10:58:45;98729.81;;;8.92;100.00
72414;BME280;60995;52.154;4.498;2024-02-23T11:01:03;98735.50;;;8.97;100.00
72414;BME280;60995;52.154;4.498;2024-02-23T11:03:22;98728.78;;;8.93;100.00
72414;BME280;60995;52.154;4.498;2024-02-23T11:05:40;98744.88;;;9.09;100.00
72414;BME280;60995;52.154;4.498;2024-02-23T11:07:56;98793.41;;;9.81;100.00
72414;BME280;60995;52.154;4.498;2024-02-23T11:10:16;98797.66;;;9.75;100.00
72414;BME280;60995;52.154;4.498;2024-02-23T11:12:33;98785.38;;;9.49;100.00
72414;BME280;60995;52.154;4.498;2024-02-23T11:14:50;98764.56;;;9.26;100.00
72414;BME280;60995;52.154;4.498;2024-02-23T11:17:17;98788.13;;;9.41;100.00
72414;BME280;60995;52.154;4.498;2024-02-23T11:19:38;98769.78;;;9.28;100.00
72414;BME280;60995;52.154;4.498;2024-02-23T11:21:58;98762.38;;;9.45;100.00
72414;BME280;60995;52.154;4.498;2024-02-23T11:24:16;98816.75;;;10.20;100.00
72414;BME280;60995;52.154;4.498;2024-02-23T11:26:32;98812.56;;;9.94;100.00
72414;BME280;60995;52.154;4.498;2024-02-23T11:28:53;98791.81;;;9.48;100.00
72414;BME280;60995;52.154;4.498;2024-02-23T11:31:14;98780.78;;;9.50;100.00
72414;BME280;60995;52.154;4.498;2024-02-23T11:33:34;98775.03;;;9.30;100.00
72414;BME280;60995;52.154;4.498;2024-02-23T11:35:51;98784.50;;;9.49;100.00
72414;BME280;60995;52.154;4.498;2024-02-23T11:38:08;98818.09;;;10.01;100.00
72414;BME280;60995;52.154;4.498;2024-02-23T11:40:26;98818.28;;;9.61;100.00
72414;BME280;60995;52.154;4.498;2024-02-23T11:42:42;98817.53;;;9.67;100.00
72414;BME280;60995;52.154;4.498;2024-02-23T11:45:02;98828.63;;;9.81;100.00
72414;BME280;60995;52.154;4.498;2024-02-23T11:47:18;98807.94;;;9.41;100.00
72414;BME280;60995;52.154;4.498;2024-02-23T11:49:34;98852.88;;;10.12;100.00
72414;BME280;60995;52.154;4.498;2024-02-23T11:51:51;98841.66;;;10.00;100.00
72414;BME280;60995;52.154;4.498;2024-02-23T11:54:07;98850.66;;;10.16;100.00
72414;BME280;60995;52.154;4.498;2024-02-23T11:56:23;98875.50;;;10.42;100.00
72414;BME280;60995;52.154;4.498;2024-02-23T11:58:41;98872.13;;;10.40;100.00
72414;BME280;60995;52.154;4.498;2024-02-23T12:00:57;98870.84;;;10.28;100.00
72414;BME280;60995;52.154;4.498;2024-02-23T12:03:16;98888.59;;;10.54;100.00
72414;BME280;60995;52.154;4.498;2024-02-23T12:05:33;98862.19;;;10.33;100.00